ROMMA est une association bénévole à but non lucratif. Votre soutien est indispensable : ADHERER à ROMMA ou FAIRE un DON

Saint-Martin-d'Hères - (38, Isère)

Vallée du Grésivaudan (220 m)   Longitude: 05° 45' 05" E   Latitude: 45° 10' 02" N Station partenaire n°4
 

Détail journalier du     <<     >>

Température Precipitation Humidité Pression Vent Dir Rafale Dir. rafale Ensol.
Heure (°C) (mm) (%) (hPa) (km/h) (km/h) (min)
01:00 11.9094102000---0
02:00 11.6095102000---0
03:00 11.2095102100---0
04:00 10.9096102100---0
05:00 10.6096102000---0
06:00 10.2096102100---0
07:00 9.9096102100---0
08:00 9.9096102102SSE0
09:00 10.2096102100---0
10:00 10.7096102200---0
11:00 13.6097102100---20
12:00 16.6082102106ONO60
13:00 19.206710203NO11NO60
14:00 21.4059101908NO60
15:00 22.70541018010NO50
16:00 24.9047101808NNO60
17:00 24.40531017013O60
18:00 23.405510172SSO10SSO40
19:00 20.306910171---15SSO40
20:00 17.8078101803S0
21:00 16.7083101900---0
22:00 15.7087101900---0
23:00 14.7090101900---0
minuit 13.9092101900---0

Graphique du 09-10-2018

 

Serveur OMMA